Terminal Aerodrome Forecast
Issued by NWS

Home | Current Version | Previous Version | Graphics & Text | Print | Product List | Glossary On
Versions: 1 2 3 4 5 6 7 8 9 10 11 12 13 14 15 16 17 18 19 20 21 22 23 24 25 26 27
000
FTUS43 KGRB 191349 AAA
TAFCWA
TAF AMD
KCWA 191349Z 1914/2012 26005KT 2SM BR OVC003
      TEMPO 1914/1916 4SM BR SCT003 BKN007
     FM191600 28007KT 5SM BR SCT007 BKN012
     FM191800 29006KT P6SM VCSH BKN030
     FM200300 32003KT 3SM BR SCT005 BKN012
     FM200600 00000KT 1SM BR OVC005=

USA.gov is the U.S. government's official web portal to all federal, state and local government web resources and services.